Latest Weather Observations for Outer Harbor (Black Pole)

IDS60901

Issued at 9:51 am CDT Wednesday 25 January 2017 (issued every 10 minutes, with the page automatically refreshed every 10 minutes)

About weather observations | Map of Adelaide area stations | Latest observations for Adelaide area | Other Formats
Station Details ID: 023052 Name: BLACK POLE Lat: -34.73 Lon: 138.47 Height: 6.27 m
Data from the previous 72 hours. | See also: Recent months for locations in South Australia
Date/Time
CDT
Temp
°C
App
Temp
°C
Dew
Point
°C
Rel
Hum
%
Delta-T
°C
Wind Press
QNH
hPa
Press
MSL
hPa
Rain since
9am
mm
Dir  Spd
km/h
Gust
km/h
Spd
kts
Gust
kts
25/09:30am - - - - - E 6 7 3 4 - - -
25/09:00am - - - - - E 9 13 5 7 - - -
25/08:30am - - - - - ESE 15 17 8 9 - - -
25/08:00am - - - - - ESE 17 20 9 11 - - -
25/07:30am - - - - - ESE 20 24 11 13 - - -
25/07:00am - - - - - ESE 15 20 8 11 - - -
25/06:30am - - - - - ESE 24 28 13 15 - - -
25/06:00am - - - - - ENE 11 19 6 10 - - -
25/05:30am - - - - - ESE 20 28 11 15 - - -
25/05:00am - - - - - ESE 9 17 5 9 - - -
25/04:30am - - - - - ENE 15 19 8 10 - - -
25/04:00am - - - - - E 15 19 8 10 - - -
25/03:30am - - - - - E 13 19 7 10 - - -
25/03:00am - - - - - E 11 17 6 9 - - -
25/02:30am - - - - - ESE 4 6 2 3 - - -
25/02:00am - - - - - SSE 4 7 2 4 - - -
25/01:30am - - - - - S 6 11 3 6 - - -
25/01:00am - - - - - S 9 13 5 7 - - -
25/12:30am - - - - - SSE 9 13 5 7 - - -
25/12:00am - - - - - SSE 13 20 7 11 - - -
 
Date/Time
CDT
Temp
°C
App
Temp
°C
Dew
Point
°C
Rel
Hum
%
Delta-T
°C
Wind Press
QNH
hPa
Press
MSL
hPa
Rain since
9am
mm
Dir  Spd
km/h
Gust
km/h
Spd
kts
Gust
kts
24/11:30pm - - - - - SE 19 24 10 13 - - -
24/11:00pm - - - - - SSE 24 30 13 16 - - -
24/10:30pm - - - - - SSE 30 37 16 20 - - -
24/10:00pm - - - - - SSE 33 43 18 23 - - -
24/09:30pm - - - - - SSE 32 39 17 21 - - -
24/09:00pm - - - - - SSE 32 39 17 21 - - -
24/08:30pm - - - - - SSE 35 39 19 21 - - -
24/08:00pm - - - - - SSE 30 35 16 19 - - -
24/07:30pm - - - - - S 37 44 20 24 - - -
24/07:00pm - - - - - S 39 46 21 25 - - -
24/06:30pm - - - - - SSW 44 54 24 29 - - -
24/06:00pm - - - - - SSW 46 54 25 29 - - -
24/05:30pm - - - - - SSW 46 54 25 29 - - -
24/05:00pm - - - - - SSW 44 56 24 30 - - -
24/04:30pm - - - - - SSW 44 50 24 27 - - -
24/04:00pm - - - - - SSW 43 50 23 27 - - -
24/03:30pm - - - - - SSW 43 50 23 27 - - -
24/03:00pm - - - - - SSW 39 46 21 25 - - -
24/02:30pm - - - - - SSW 39 46 21 25 - - -
24/02:00pm - - - - - SSW 37 46 20 25 - - -
24/01:30pm - - - - - SSW 35 43 19 23 - - -
24/01:00pm - - - - - SSW 33 39 18 21 - - -
24/12:30pm - - - - - SSW 32 41 17 22 - - -
24/12:00pm - - - - - SSW 32 39 17 21 - - -
24/11:30am - - - - - SSW 28 35 15 19 - - -
24/11:00am - - - - - SSW 26 33 14 18 - - -
24/10:30am - - - - - S 26 32 14 17 - - -
24/10:00am - - - - - S 28 35 15 19 - - -
24/09:30am - - - - - S 22 30 12 16 - - -
24/09:00am - - - - - SSE 15 20 8 11 - - -
24/08:30am - - - - - SSE 20 32 11 17 - - -
24/08:00am - - - - - SSE 22 30 12 16 - - -
24/07:30am - - - - - SSE 22 30 12 16 - - -
24/07:00am - - - - - SSE 24 32 13 17 - - -
24/06:30am - - - - - S 30 39 16 21 - - -
24/06:00am - - - - - S 39 44 21 24 - - -
24/05:30am - - - - - S 41 50 22 27 - - -
24/05:00am - - - - - SSW 35 43 19 23 - - -
24/04:30am - - - - - SSW 37 44 20 24 - - -
24/04:00am - - - - - SSW 39 46 21 25 - - -
24/03:30am - - - - - SSW 39 48 21 26 - - -
24/03:00am - - - - - SSW 41 50 22 27 - - -
24/02:30am - - - - - SSW 41 48 22 26 - - -
24/02:00am - - - - - SSW 39 48 21 26 - - -
24/01:30am - - - - - SSW 39 46 21 25 - - -
24/01:00am - - - - - SW 35 41 19 22 - - -
24/12:30am - - - - - SW 39 46 21 25 - - -
24/12:00am - - - - - SW 39 48 21 26 - - -
 
Date/Time
CDT
Temp
°C
App
Temp
°C
Dew
Point
°C
Rel
Hum
%
Delta-T
°C
Wind Press
QNH
hPa
Press
MSL
hPa
Rain since
9am
mm
Dir  Spd
km/h
Gust
km/h
Spd
kts
Gust
kts
23/11:30pm - - - - - SW 46 54 25 29 - - -
23/11:00pm - - - - - SW 43 50 23 27 - - -
23/10:56pm - - - - - SW 43 50 23 27 - - -
23/10:30pm - - - - - W 30 35 16 19 - - -
23/10:00pm - - - - - WSW 30 33 16 18 - - -
23/09:30pm - - - - - WNW 22 26 12 14 - - -
23/09:00pm - - - - - NW 19 22 10 12 - - -
23/08:30pm - - - - - NW 17 20 9 11 - - -
23/08:00pm - - - - - WNW 17 20 9 11 - - -
23/07:30pm - - - - - NW 15 19 8 10 - - -
23/07:00pm - - - - - N 15 20 8 11 - - -
23/06:30pm - - - - - NNE 15 19 8 10 - - -
23/06:00pm - - - - - NNE 9 13 5 7 - - -
23/05:30pm - - - - - SE 6 9 3 5 - - -
23/05:00pm - - - - - SSE 2 6 1 3 - - -
23/04:30pm - - - - - SW 4 7 2 4 - - -
23/04:00pm - - - - - SSW 9 11 5 6 - - -
23/03:30pm - - - - - SW 7 9 4 5 - - -
23/03:00pm - - - - - SW 11 13 6 7 - - -
23/02:30pm - - - - - SSE 11 13 6 7 - - -
23/02:00pm - - - - - SE 15 19 8 10 - - -
23/01:30pm - - - - - SSE 20 24 11 13 - - -
23/01:00pm - - - - - S 17 24 9 13 - - -
23/12:30pm - - - - - S 19 22 10 12 - - -
23/12:00pm - - - - - SSW 20 28 11 15 - - -
23/11:30am - - - - - WSW 19 22 10 12 - - -
23/11:00am - - - - - WSW 22 28 12 15 - - -
23/10:30am - - - - - WSW 7 9 4 5 - - -
23/10:00am - - - - - NW 4 6 2 3 - - -
23/09:30am - - - - - NNW 6 6 3 3 - - -
23/09:00am - - - - - N 9 11 5 6 - - -
23/08:30am - - - - - NNE 13 15 7 8 - - -
23/08:00am - - - - - NNE 13 15 7 8 - - -
23/07:30am - - - - - NNE 11 13 6 7 - - -
23/07:00am - - - - - NNE 17 19 9 10 - - -
23/06:30am - - - - - NNE 15 19 8 10 - - -
23/06:00am - - - - - N 11 13 6 7 - - -
23/05:30am - - - - - N 11 13 6 7 - - -
23/05:00am - - - - - N 13 15 7 8 - - -
23/04:30am - - - - - NNW 11 13 6 7 - - -
23/04:00am - - - - - NNE 13 15 7 8 - - -
23/03:30am - - - - - N 6 7 3 4 - - -
23/03:00am - - - - - NE 9 11 5 6 - - -
23/02:30am - - - - - E 13 15 7 8 - - -
23/02:00am - - - - - E 20 22 11 12 - - -
23/01:30am - - - - - ESE 15 17 8 9 - - -
23/01:00am - - - - - ESE 11 13 6 7 - - -
23/12:30am - - - - - SE 13 13 7 7 - - -
23/12:00am - - - - - SSE 17 20 9 11 - - -
 
Date/Time
CDT
Temp
°C
App
Temp
°C
Dew
Point
°C
Rel
Hum
%
Delta-T
°C
Wind Press
QNH
hPa
Press
MSL
hPa
Rain since
9am
mm
Dir  Spd
km/h
Gust
km/h
Spd
kts
Gust
kts
22/11:30pm - - - - - SSW 24 30 13 16 - - -
22/11:00pm - - - - - SSW 24 26 13 14 - - -
22/10:30pm - - - - - SSW 20 24 11 13 - - -
22/10:00pm - - - - - SSW 22 24 12 13 - - -
22/09:30pm - - - - - SSW 19 32 10 17 - - -
22/09:00pm - - - - - SSE 17 19 9 10 - - -
22/08:30pm - - - - - S 26 32 14 17 - - -
22/08:00pm - - - - - S 22 26 12 14 - - -
22/07:30pm - - - - - SSW 22 30 12 16 - - -
22/07:00pm - - - - - S 19 22 10 12 - - -
22/06:30pm - - - - - S 15 17 8 9 - - -
22/06:00pm - - - - - SSE 17 20 9 11 - - -
22/05:30pm - - - - - S 19 22 10 12 - - -
22/05:00pm - - - - - SSW 17 20 9 11 - - -
22/04:30pm - - - - - SSW 17 19 9 10 - - -
22/04:00pm - - - - - SSW 13 13 7 7 - - -
22/03:30pm - - - - - SW 13 15 7 8 - - -
22/03:00pm - - - - - SW 15 15 8 8 - - -
22/02:30pm - - - - - SW 13 15 7 8 - - -
22/02:00pm - - - - - SW 13 13 7 7 - - -
22/01:30pm - - - - - SW 15 17 8 9 - - -
22/01:00pm - - - - - SW 15 17 8 9 - - -
22/12:30pm - - - - - WSW 13 15 7 8 - - -
22/12:00pm - - - - - W 9 11 5 6 - - -
22/11:30am - - - - - NE 13 17 7 9 - - -
22/11:00am - - - - - NNE 20 24 11 13 - - -
22/10:30am - - - - - NE 13 17 7 9 - - -
22/10:00am - - - - - NE 15 19 8 10 - - -

Latest Capital City Observations: Canberra | Sydney | Melbourne | Brisbane | Adelaide | Perth | Hobart | Darwin

Other Formats:

Comma delimited format used in spreadsheet applications
http://www.bom.gov.au/fwo/IDS60901/IDS60901.95675.axf

JavaScript Object Notation format (JSON) in row-major order
http://www.bom.gov.au/fwo/IDS60901/IDS60901.95675.json